sensor_id;sensor_type;location;lat;lon;timestamp;P1;durP1;ratioP1;P2;durP2;ratioP2
43807;SDS011;29438;50.664;10.098;2023-07-30T00:01:43;5.30;;;2.88;;
43807;SDS011;29438;50.664;10.098;2023-07-30T00:04:09;5.35;;;2.72;;
43807;SDS011;29438;50.664;10.098;2023-07-30T00:06:34;8.25;;;3.00;;
43807;SDS011;29438;50.664;10.098;2023-07-30T00:09:00;4.90;;;2.80;;
43807;SDS011;29438;50.664;10.098;2023-07-30T00:11:25;5.70;;;3.20;;
43807;SDS011;29438;50.664;10.098;2023-07-30T00:13:51;4.65;;;3.13;;
43807;SDS011;29438;50.664;10.098;2023-07-30T00:16:16;6.05;;;3.38;;
43807;SDS011;29438;50.664;10.098;2023-07-30T00:18:42;6.32;;;3.38;;
43807;SDS011;29438;50.664;10.098;2023-07-30T00:21:08;5.00;;;3.08;;
43807;SDS011;29438;50.664;10.098;2023-07-30T00:23:33;5.55;;;3.42;;
43807;SDS011;29438;50.664;10.098;2023-07-30T00:25:59;6.43;;;3.78;;
43807;SDS011;29438;50.664;10.098;2023-07-30T00:28:24;6.32;;;3.60;;
43807;SDS011;29438;50.664;10.098;2023-07-30T00:30:50;5.97;;;4.03;;
43807;SDS011;29438;50.664;10.098;2023-07-30T00:33:15;6.43;;;3.65;;
43807;SDS011;29438;50.664;10.098;2023-07-30T00:35:41;6.03;;;3.65;;
43807;SDS011;29438;50.664;10.098;2023-07-30T00:38:06;5.80;;;3.70;;
43807;SDS011;29438;50.664;10.098;2023-07-30T00:40:32;6.78;;;3.75;;
43807;SDS011;29438;50.664;10.098;2023-07-30T00:42:57;7.25;;;3.58;;
43807;SDS011;29438;50.664;10.098;2023-07-30T00:45:23;6.03;;;4.10;;
43807;SDS011;29438;50.664;10.098;2023-07-30T00:47:49;7.60;;;4.32;;
43807;SDS011;29438;50.664;10.098;2023-07-30T00:50:14;8.30;;;4.10;;
43807;SDS011;29438;50.664;10.098;2023-07-30T00:52:42;7.13;;;4.15;;
43807;SDS011;29438;50.664;10.098;2023-07-30T00:55:08;5.18;;;3.00;;
43807;SDS011;29438;50.664;10.098;2023-07-30T00:57:35;7.50;;;3.97;;
43807;SDS011;29438;50.664;10.098;2023-07-30T01:00:01;5.40;;;3.78;;
43807;SDS011;29438;50.664;10.098;2023-07-30T01:02:30;7.55;;;4.28;;
43807;SDS011;29438;50.664;10.098;2023-07-30T01:04:56;7.50;;;4.55;;
43807;SDS011;29438;50.664;10.098;2023-07-30T01:07:24;6.63;;;4.05;;
43807;SDS011;29438;50.664;10.098;2023-07-30T01:09:50;7.10;;;4.30;;
43807;SDS011;29438;50.664;10.098;2023-07-30T01:12:16;10.00;;;4.10;;
43807;SDS011;29438;50.664;10.098;2023-07-30T01:14:41;6.90;;;4.10;;
43807;SDS011;29438;50.664;10.098;2023-07-30T01:17:08;6.80;;;3.67;;
43807;SDS011;29438;50.664;10.098;2023-07-30T01:19:34;6.40;;;3.83;;
43807;SDS011;29438;50.664;10.098;2023-07-30T01:22:00;7.68;;;4.10;;
43807;SDS011;29438;50.664;10.098;2023-07-30T01:24:25;7.22;;;4.03;;
43807;SDS011;29438;50.664;10.098;2023-07-30T01:26:53;7.30;;;3.70;;
43807;SDS011;29438;50.664;10.098;2023-07-30T01:29:22;4.75;;;3.00;;
43807;SDS011;29438;50.664;10.098;2023-07-30T01:32:02;4.57;;;2.88;;
43807;SDS011;29438;50.664;10.098;2023-07-30T01:34:30;6.55;;;3.35;;
43807;SDS011;29438;50.664;10.098;2023-07-30T01:36:59;6.72;;;2.92;;
43807;SDS011;29438;50.664;10.098;2023-07-30T01:39:26;8.00;;;3.25;;
43807;SDS011;29438;50.664;10.098;2023-07-30T01:41:53;5.22;;;2.88;;
43807;SDS011;29438;50.664;10.098;2023-07-30T01:44:19;5.25;;;2.90;;
43807;SDS011;29438;50.664;10.098;2023-07-30T01:46:45;4.97;;;2.55;;
43807;SDS011;29438;50.664;10.098;2023-07-30T01:49:11;4.63;;;2.90;;
43807;SDS011;29438;50.664;10.098;2023-07-30T01:51:36;4.53;;;2.95;;
43807;SDS011;29438;50.664;10.098;2023-07-30T01:54:02;3.72;;;2.40;;
43807;SDS011;29438;50.664;10.098;2023-07-30T01:56:27;4.35;;;2.88;;
43807;SDS011;29438;50.664;10.098;2023-07-30T01:58:53;5.40;;;2.05;;
43807;SDS011;29438;50.664;10.098;2023-07-30T02:01:19;4.15;;;2.25;;
43807;SDS011;29438;50.664;10.098;2023-07-30T02:03:45;4.38;;;2.05;;
43807;SDS011;29438;50.664;10.098;2023-07-30T02:06:10;3.72;;;2.20;;
43807;SDS011;29438;50.664;10.098;2023-07-30T02:08:36;3.35;;;2.15;;
43807;SDS011;29438;50.664;10.098;2023-07-30T02:11:02;3.17;;;1.88;;
43807;SDS011;29438;50.664;10.098;2023-07-30T02:13:28;3.42;;;1.90;;
43807;SDS011;29438;50.664;10.098;2023-07-30T02:15:53;5.43;;;1.88;;
43807;SDS011;29438;50.664;10.098;2023-07-30T02:18:19;4.18;;;1.88;;
43807;SDS011;29438;50.664;10.098;2023-07-30T02:20:44;2.95;;;1.88;;
43807;SDS011;29438;50.664;10.098;2023-07-30T02:23:10;3.80;;;1.65;;
43807;SDS011;29438;50.664;10.098;2023-07-30T02:25:37;5.35;;;1.77;;
43807;SDS011;29438;50.664;10.098;2023-07-30T02:28:03;3.28;;;1.98;;
43807;SDS011;29438;50.664;10.098;2023-07-30T02:30:29;3.42;;;1.65;;
43807;SDS011;29438;50.664;10.098;2023-07-30T02:32:54;2.47;;;1.50;;
43807;SDS011;29438;50.664;10.098;2023-07-30T02:35:20;3.55;;;2.08;;
43807;SDS011;29438;50.664;10.098;2023-07-30T02:37:45;4.05;;;1.80;;
43807;SDS011;29438;50.664;10.098;2023-07-30T02:40:11;3.05;;;1.73;;
43807;SDS011;29438;50.664;10.098;2023-07-30T02:42:37;3.92;;;1.70;;
43807;SDS011;29438;50.664;10.098;2023-07-30T02:45:03;3.80;;;1.65;;
43807;SDS011;29438;50.664;10.098;2023-07-30T02:47:28;3.95;;;1.75;;
43807;SDS011;29438;50.664;10.098;2023-07-30T02:49:54;3.67;;;1.70;;
43807;SDS011;29438;50.664;10.098;2023-07-30T02:52:19;4.38;;;1.60;;
43807;SDS011;29438;50.664;10.098;2023-07-30T02:54:45;2.67;;;1.70;;
43807;SDS011;29438;50.664;10.098;2023-07-30T02:57:11;3.53;;;1.67;;
43807;SDS011;29438;50.664;10.098;2023-07-30T02:59:37;2.92;;;1.63;;
43807;SDS011;29438;50.664;10.098;2023-07-30T03:02:03;3.15;;;1.60;;
43807;SDS011;29438;50.664;10.098;2023-07-30T03:04:31;2.50;;;1.58;;
43807;SDS011;29438;50.664;10.098;2023-07-30T03:06:57;2.53;;;1.60;;
43807;SDS011;29438;50.664;10.098;2023-07-30T03:09:23;2.63;;;1.55;;
43807;SDS011;29438;50.664;10.098;2023-07-30T03:11:49;2.90;;;1.45;;
43807;SDS011;29438;50.664;10.098;2023-07-30T03:14:15;2.85;;;1.70;;
43807;SDS011;29438;50.664;10.098;2023-07-30T03:16:40;3.58;;;1.50;;
43807;SDS011;29438;50.664;10.098;2023-07-30T03:19:06;2.60;;;1.60;;
43807;SDS011;29438;50.664;10.098;2023-07-30T03:21:31;2.70;;;1.50;;
43807;SDS011;29438;50.664;10.098;2023-07-30T03:23:57;2.20;;;1.40;;
43807;SDS011;29438;50.664;10.098;2023-07-30T03:26:22;3.67;;;1.70;;
43807;SDS011;29438;50.664;10.098;2023-07-30T03:28:48;3.55;;;1.58;;
43807;SDS011;29438;50.664;10.098;2023-07-30T03:31:14;3.85;;;1.60;;
43807;SDS011;29438;50.664;10.098;2023-07-30T03:33:39;3.08;;;1.40;;
43807;SDS011;29438;50.664;10.098;2023-07-30T03:36:09;2.88;;;1.55;;
43807;SDS011;29438;50.664;10.098;2023-07-30T03:38:35;2.83;;;1.60;;
43807;SDS011;29438;50.664;10.098;2023-07-30T03:41:00;3.50;;;1.60;;
43807;SDS011;29438;50.664;10.098;2023-07-30T03:43:26;2.30;;;1.40;;
43807;SDS011;29438;50.664;10.098;2023-07-30T03:45:52;3.05;;;1.50;;
43807;SDS011;29438;50.664;10.098;2023-07-30T03:48:17;5.97;;;1.80;;
43807;SDS011;29438;50.664;10.098;2023-07-30T03:50:43;3.05;;;1.90;;
43807;SDS011;29438;50.664;10.098;2023-07-30T03:53:08;3.50;;;2.00;;
43807;SDS011;29438;50.664;10.098;2023-07-30T03:55:34;3.97;;;2.20;;
43807;SDS011;29438;50.664;10.098;2023-07-30T03:57:59;4.72;;;1.90;;
43807;SDS011;29438;50.664;10.098;2023-07-30T04:00:25;3.47;;;1.95;;
43807;SDS011;29438;50.664;10.098;2023-07-30T04:02:50;3.63;;;1.90;;
43807;SDS011;29438;50.664;10.098;2023-07-30T04:05:16;5.32;;;2.22;;
43807;SDS011;29438;50.664;10.098;2023-07-30T04:07:41;3.65;;;2.03;;
43807;SDS011;29438;50.664;10.098;2023-07-30T04:10:07;3.60;;;2.30;;
43807;SDS011;29438;50.664;10.098;2023-07-30T04:12:33;4.65;;;2.50;;
43807;SDS011;29438;50.664;10.098;2023-07-30T04:14:58;4.70;;;2.60;;
43807;SDS011;29438;50.664;10.098;2023-07-30T04:17:24;8.85;;;2.80;;
43807;SDS011;29438;50.664;10.098;2023-07-30T04:19:49;4.60;;;2.72;;
43807;SDS011;29438;50.664;10.098;2023-07-30T04:22:15;3.90;;;2.58;;
43807;SDS011;29438;50.664;10.098;2023-07-30T04:24:40;4.65;;;2.85;;
43807;SDS011;29438;50.664;10.098;2023-07-30T04:27:06;4.53;;;2.95;;
43807;SDS011;29438;50.664;10.098;2023-07-30T04:29:32;4.25;;;2.85;;
43807;SDS011;29438;50.664;10.098;2023-07-30T04:31:57;5.93;;;3.15;;
43807;SDS011;29438;50.664;10.098;2023-07-30T04:34:23;6.00;;;3.22;;
43807;SDS011;29438;50.664;10.098;2023-07-30T04:36:48;3.95;;;3.00;;
43807;SDS011;29438;50.664;10.098;2023-07-30T04:39:14;4.47;;;3.00;;
43807;SDS011;29438;50.664;10.098;2023-07-30T04:41:39;4.85;;;3.05;;
43807;SDS011;29438;50.664;10.098;2023-07-30T04:44:05;4.43;;;2.85;;
43807;SDS011;29438;50.664;10.098;2023-07-30T04:46:30;4.80;;;2.70;;
43807;SDS011;29438;50.664;10.098;2023-07-30T04:48:58;4.38;;;3.05;;
43807;SDS011;29438;50.664;10.098;2023-07-30T04:51:23;4.22;;;2.85;;
43807;SDS011;29438;50.664;10.098;2023-07-30T04:53:49;4.75;;;3.10;;
43807;SDS011;29438;50.664;10.098;2023-07-30T04:56:14;4.53;;;2.70;;
43807;SDS011;29438;50.664;10.098;2023-07-30T04:58:40;5.40;;;3.80;;
43807;SDS011;29438;50.664;10.098;2023-07-30T05:01:06;5.30;;;3.50;;
43807;SDS011;29438;50.664;10.098;2023-07-30T05:03:31;5.13;;;3.38;;
43807;SDS011;29438;50.664;10.098;2023-07-30T05:05:57;4.82;;;3.28;;
43807;SDS011;29438;50.664;10.098;2023-07-30T05:08:22;4.45;;;3.05;;
43807;SDS011;29438;50.664;10.098;2023-07-30T05:10:48;5.82;;;3.00;;
43807;SDS011;29438;50.664;10.098;2023-07-30T05:13:13;4.43;;;2.90;;
43807;SDS011;29438;50.664;10.098;2023-07-30T05:15:39;4.30;;;2.30;;
43807;SDS011;29438;50.664;10.098;2023-07-30T05:18:04;2.55;;;1.85;;
43807;SDS011;29438;50.664;10.098;2023-07-30T05:20:30;3.03;;;1.90;;
43807;SDS011;29438;50.664;10.098;2023-07-30T05:22:55;3.60;;;1.42;;
43807;SDS011;29438;50.664;10.098;2023-07-30T05:25:21;2.42;;;1.50;;
43807;SDS011;29438;50.664;10.098;2023-07-30T05:27:47;3.88;;;1.30;;
43807;SDS011;29438;50.664;10.098;2023-07-30T05:30:13;3.25;;;1.20;;
43807;SDS011;29438;50.664;10.098;2023-07-30T05:32:38;2.13;;;1.30;;
43807;SDS011;29438;50.664;10.098;2023-07-30T05:35:04;2.92;;;1.20;;
43807;SDS011;29438;50.664;10.098;2023-07-30T05:37:30;2.55;;;1.20;;
43807;SDS011;29438;50.664;10.098;2023-07-30T05:39:56;3.33;;;1.08;;
43807;SDS011;29438;50.664;10.098;2023-07-30T05:42:21;1.40;;;0.80;;
43807;SDS011;29438;50.664;10.098;2023-07-30T05:44:47;1.77;;;0.88;;
43807;SDS011;29438;50.664;10.098;2023-07-30T05:47:12;2.17;;;1.10;;
43807;SDS011;29438;50.664;10.098;2023-07-30T05:49:38;1.63;;;0.70;;
43807;SDS011;29438;50.664;10.098;2023-07-30T05:52:04;1.65;;;0.70;;
43807;SDS011;29438;50.664;10.098;2023-07-30T05:54:30;3.53;;;1.00;;
43807;SDS011;29438;50.664;10.098;2023-07-30T05:56:55;2.22;;;1.10;;
43807;SDS011;29438;50.664;10.098;2023-07-30T05:59:21;1.98;;;1.08;;
43807;SDS011;29438;50.664;10.098;2023-07-30T06:01:46;3.13;;;0.90;;
43807;SDS011;29438;50.664;10.098;2023-07-30T06:04:12;1.48;;;0.88;;
43807;SDS011;29438;50.664;10.098;2023-07-30T06:06:38;1.50;;;0.80;;
43807;SDS011;29438;50.664;10.098;2023-07-30T06:09:03;1.90;;;0.73;;
43807;SDS011;29438;50.664;10.098;2023-07-30T06:11:29;2.35;;;0.90;;
43807;SDS011;29438;50.664;10.098;2023-07-30T06:13:55;3.40;;;1.00;;
43807;SDS011;29438;50.664;10.098;2023-07-30T06:16:20;4.78;;;0.80;;
43807;SDS011;29438;50.664;10.098;2023-07-30T06:18:46;1.67;;;0.98;;
43807;SDS011;29438;50.664;10.098;2023-07-30T06:21:12;1.98;;;0.65;;
43807;SDS011;29438;50.664;10.098;2023-07-30T06:23:37;2.08;;;0.60;;
43807;SDS011;29438;50.664;10.098;2023-07-30T06:26:03;4.00;;;0.70;;
43807;SDS011;29438;50.664;10.098;2023-07-30T06:28:29;2.03;;;0.60;;
43807;SDS011;29438;50.664;10.098;2023-07-30T06:30:54;2.05;;;0.77;;
43807;SDS011;29438;50.664;10.098;2023-07-30T06:33:20;2.35;;;0.68;;
43807;SDS011;29438;50.664;10.098;2023-07-30T06:35:45;1.88;;;0.55;;
43807;SDS011;29438;50.664;10.098;2023-07-30T06:38:11;2.10;;;0.63;;
43807;SDS011;29438;50.664;10.098;2023-07-30T06:40:36;1.17;;;0.40;;
43807;SDS011;29438;50.664;10.098;2023-07-30T06:43:02;1.70;;;0.57;;
43807;SDS011;29438;50.664;10.098;2023-07-30T06:45:27;1.60;;;0.68;;
43807;SDS011;29438;50.664;10.098;2023-07-30T06:47:53;1.38;;;0.65;;
43807;SDS011;29438;50.664;10.098;2023-07-30T06:50:19;1.63;;;0.40;;
43807;SDS011;29438;50.664;10.098;2023-07-30T06:52:44;1.55;;;0.47;;
43807;SDS011;29438;50.664;10.098;2023-07-30T06:55:10;3.20;;;0.50;;
43807;SDS011;29438;50.664;10.098;2023-07-30T06:57:35;1.67;;;0.40;;
43807;SDS011;29438;50.664;10.098;2023-07-30T07:00:01;2.15;;;0.60;;
43807;SDS011;29438;50.664;10.098;2023-07-30T07:02:28;1.73;;;0.40;;
43807;SDS011;29438;50.664;10.098;2023-07-30T07:04:54;0.90;;;0.20;;
43807;SDS011;29438;50.664;10.098;2023-07-30T07:07:20;1.42;;;0.20;;
43807;SDS011;29438;50.664;10.098;2023-07-30T07:09:45;1.65;;;0.30;;
43807;SDS011;29438;50.664;10.098;2023-07-30T07:12:11;1.67;;;0.50;;
43807;SDS011;29438;50.664;10.098;2023-07-30T07:14:36;2.20;;;0.30;;
43807;SDS011;29438;50.664;10.098;2023-07-30T07:17:02;1.25;;;0.35;;
43807;SDS011;29438;50.664;10.098;2023-07-30T07:19:28;1.20;;;0.30;;
43807;SDS011;29438;50.664;10.098;2023-07-30T07:21:53;1.20;;;0.35;;
43807;SDS011;29438;50.664;10.098;2023-07-30T07:24:19;2.20;;;0.40;;
43807;SDS011;29438;50.664;10.098;2023-07-30T07:26:44;0.80;;;0.30;;
43807;SDS011;29438;50.664;10.098;2023-07-30T07:29:10;1.00;;;0.30;;
43807;SDS011;29438;50.664;10.098;2023-07-30T07:31:36;1.63;;;0.30;;
43807;SDS011;29438;50.664;10.098;2023-07-30T07:34:01;1.48;;;0.30;;
43807;SDS011;29438;50.664;10.098;2023-07-30T07:36:27;0.95;;;0.30;;
43807;SDS011;29438;50.664;10.098;2023-07-30T07:38:52;1.60;;;0.20;;
43807;SDS011;29438;50.664;10.098;2023-07-30T07:41:18;1.20;;;0.35;;
43807;SDS011;29438;50.664;10.098;2023-07-30T07:43:44;1.95;;;0.40;;
43807;SDS011;29438;50.664;10.098;2023-07-30T07:46:11;1.27;;;0.45;;
43807;SDS011;29438;50.664;10.098;2023-07-30T07:48:42;1.80;;;0.40;;
43807;SDS011;29438;50.664;10.098;2023-07-30T07:51:09;1.08;;;0.30;;
43807;SDS011;29438;50.664;10.098;2023-07-30T07:53:35;2.95;;;0.50;;
43807;SDS011;29438;50.664;10.098;2023-07-30T07:56:02;1.00;;;0.30;;
43807;SDS011;29438;50.664;10.098;2023-07-30T07:58:28;1.63;;;0.50;;
43807;SDS011;29438;50.664;10.098;2023-07-30T08:00:57;0.95;;;0.30;;
43807;SDS011;29438;50.664;10.098;2023-07-30T08:03:23;1.65;;;0.47;;
43807;SDS011;29438;50.664;10.098;2023-07-30T08:05:51;1.67;;;0.32;;
43807;SDS011;29438;50.664;10.098;2023-07-30T08:08:17;1.63;;;0.50;;
43807;SDS011;29438;50.664;10.098;2023-07-30T08:10:43;1.52;;;0.40;;
43807;SDS011;29438;50.664;10.098;2023-07-30T08:13:11;1.40;;;0.40;;
43807;SDS011;29438;50.664;10.098;2023-07-30T08:15:36;1.30;;;0.50;;
43807;SDS011;29438;50.664;10.098;2023-07-30T08:18:02;1.75;;;0.38;;
43807;SDS011;29438;50.664;10.098;2023-07-30T08:20:28;1.52;;;0.40;;
43807;SDS011;29438;50.664;10.098;2023-07-30T08:22:53;2.00;;;0.52;;
43807;SDS011;29438;50.664;10.098;2023-07-30T08:25:20;1.67;;;0.50;;
43807;SDS011;29438;50.664;10.098;2023-07-30T08:27:45;1.83;;;0.50;;
43807;SDS011;29438;50.664;10.098;2023-07-30T08:30:11;2.72;;;0.60;;
43807;SDS011;29438;50.664;10.098;2023-07-30T08:32:37;2.60;;;0.60;;
43807;SDS011;29438;50.664;10.098;2023-07-30T08:35:03;2.70;;;0.63;;
43807;SDS011;29438;50.664;10.098;2023-07-30T08:37:29;1.52;;;0.60;;
43807;SDS011;29438;50.664;10.098;2023-07-30T08:39:55;2.33;;;0.57;;
43807;SDS011;29438;50.664;10.098;2023-07-30T08:42:20;1.73;;;0.60;;
43807;SDS011;29438;50.664;10.098;2023-07-30T08:44:46;2.25;;;0.57;;
43807;SDS011;29438;50.664;10.098;2023-07-30T08:47:11;2.75;;;0.77;;
43807;SDS011;29438;50.664;10.098;2023-07-30T08:49:37;2.70;;;0.75;;
43807;SDS011;29438;50.664;10.098;2023-07-30T08:52:03;2.25;;;0.85;;
43807;SDS011;29438;50.664;10.098;2023-07-30T08:54:30;1.92;;;0.60;;
43807;SDS011;29438;50.664;10.098;2023-07-30T08:56:56;2.15;;;0.45;;
43807;SDS011;29438;50.664;10.098;2023-07-30T08:59:23;1.70;;;0.55;;
43807;SDS011;29438;50.664;10.098;2023-07-30T09:01:51;2.28;;;0.60;;
43807;SDS011;29438;50.664;10.098;2023-07-30T09:04:18;2.90;;;0.73;;
43807;SDS011;29438;50.664;10.098;2023-07-30T09:06:47;2.53;;;0.75;;
43807;SDS011;29438;50.664;10.098;2023-07-30T09:09:14;4.35;;;0.88;;
43807;SDS011;29438;50.664;10.098;2023-07-30T09:11:39;1.75;;;0.55;;
43807;SDS011;29438;50.664;10.098;2023-07-30T09:14:05;4.03;;;0.98;;
43807;SDS011;29438;50.664;10.098;2023-07-30T09:16:31;2.65;;;0.80;;
43807;SDS011;29438;50.664;10.098;2023-07-30T09:18:57;2.65;;;0.95;;
43807;SDS011;29438;50.664;10.098;2023-07-30T09:21:29;2.58;;;0.90;;
43807;SDS011;29438;50.664;10.098;2023-07-30T09:24:00;3.75;;;0.80;;
43807;SDS011;29438;50.664;10.098;2023-07-30T09:26:36;2.72;;;0.90;;
43807;SDS011;29438;50.664;10.098;2023-07-30T09:29:09;1.77;;;0.70;;
43807;SDS011;29438;50.664;10.098;2023-07-30T09:31:48;2.40;;;0.90;;
43807;SDS011;29438;50.664;10.098;2023-07-30T09:34:22;1.58;;;0.80;;
43807;SDS011;29438;50.664;10.098;2023-07-30T09:36:55;2.28;;;0.55;;
43807;SDS011;29438;50.664;10.098;2023-07-30T09:39:22;3.65;;;0.75;;
43807;SDS011;29438;50.664;10.098;2023-07-30T09:41:52;3.45;;;0.88;;
43807;SDS011;29438;50.664;10.098;2023-07-30T09:44:25;2.38;;;0.85;;
43807;SDS011;29438;50.664;10.098;2023-07-30T09:46:52;2.78;;;0.80;;
43807;SDS011;29438;50.664;10.098;2023-07-30T09:49:17;2.92;;;0.80;;
43807;SDS011;29438;50.664;10.098;2023-07-30T09:51:43;3.05;;;0.90;;
43807;SDS011;29438;50.664;10.098;2023-07-30T09:54:11;2.75;;;0.77;;
43807;SDS011;29438;50.664;10.098;2023-07-30T09:56:37;2.60;;;0.75;;
43807;SDS011;29438;50.664;10.098;2023-07-30T09:59:04;2.50;;;0.80;;
43807;SDS011;29438;50.664;10.098;2023-07-30T10:01:30;6.20;;;1.33;;
43807;SDS011;29438;50.664;10.098;2023-07-30T10:03:57;1.85;;;0.80;;
43807;SDS011;29438;50.664;10.098;2023-07-30T10:06:24;1.95;;;0.90;;
43807;SDS011;29438;50.664;10.098;2023-07-30T10:08:52;2.33;;;1.00;;
43807;SDS011;29438;50.664;10.098;2023-07-30T10:11:20;1.85;;;1.13;;
43807;SDS011;29438;50.664;10.098;2023-07-30T10:13:46;5.35;;;1.10;;
43807;SDS011;29438;50.664;10.098;2023-07-30T10:16:12;2.85;;;0.82;;
43807;SDS011;29438;50.664;10.098;2023-07-30T10:18:38;1.65;;;0.70;;
43807;SDS011;29438;50.664;10.098;2023-07-30T10:21:08;2.03;;;0.70;;
43807;SDS011;29438;50.664;10.098;2023-07-30T10:23:35;2.95;;;0.50;;
43807;SDS011;29438;50.664;10.098;2023-07-30T10:26:11;1.13;;;0.35;;
43807;SDS011;29438;50.664;10.098;2023-07-30T10:28:37;1.70;;;0.40;;
43807;SDS011;29438;50.664;10.098;2023-07-30T10:31:05;2.45;;;0.73;;
43807;SDS011;29438;50.664;10.098;2023-07-30T10:36:32;2.20;;;1.20;;
43807;SDS011;29438;50.664;10.098;2023-07-30T10:41:46;1.85;;;0.40;;
43807;SDS011;29438;50.664;10.098;2023-07-30T10:44:27;1.98;;;0.40;;
43807;SDS011;29438;50.664;10.098;2023-07-30T10:46:56;2.17;;;0.95;;
43807;SDS011;29438;50.664;10.098;2023-07-30T10:49:23;1.52;;;0.60;;
43807;SDS011;29438;50.664;10.098;2023-07-30T10:51:49;1.90;;;0.70;;
43807;SDS011;29438;50.664;10.098;2023-07-30T10:54:17;1.45;;;0.50;;
43807;SDS011;29438;50.664;10.098;2023-07-30T10:56:43;1.75;;;0.40;;
43807;SDS011;29438;50.664;10.098;2023-07-30T10:59:10;0.80;;;0.40;;
43807;SDS011;29438;50.664;10.098;2023-07-30T11:01:43;1.38;;;0.40;;
43807;SDS011;29438;50.664;10.098;2023-07-30T11:04:19;1.20;;;0.25;;
43807;SDS011;29438;50.664;10.098;2023-07-30T11:06:46;1.23;;;0.40;;
43807;SDS011;29438;50.664;10.098;2023-07-30T11:09:23;1.17;;;0.40;;
43807;SDS011;29438;50.664;10.098;2023-07-30T11:11:50;1.25;;;0.47;;
43807;SDS011;29438;50.664;10.098;2023-07-30T11:14:17;1.92;;;0.50;;
43807;SDS011;29438;50.664;10.098;2023-07-30T11:16:50;2.38;;;0.55;;
43807;SDS011;29438;50.664;10.098;2023-07-30T11:19:17;1.15;;;0.43;;
43807;SDS011;29438;50.664;10.098;2023-07-30T11:21:50;1.63;;;0.70;;
43807;SDS011;29438;50.664;10.098;2023-07-30T11:24:16;1.40;;;0.52;;
43807;SDS011;29438;50.664;10.098;2023-07-30T11:26:43;2.15;;;0.68;;
43807;SDS011;29438;50.664;10.098;2023-07-30T11:29:18;1.95;;;0.60;;
43807;SDS011;29438;50.664;10.098;2023-07-30T11:31:45;1.45;;;0.60;;
43807;SDS011;29438;50.664;10.098;2023-07-30T11:34:12;2.88;;;0.63;;
43807;SDS011;29438;50.664;10.098;2023-07-30T11:36:39;1.50;;;0.70;;
43807;SDS011;29438;50.664;10.098;2023-07-30T11:39:06;2.17;;;0.40;;
43807;SDS011;29438;50.664;10.098;2023-07-30T11:41:33;1.10;;;0.60;;
43807;SDS011;29438;50.664;10.098;2023-07-30T11:43:59;1.27;;;0.68;;
43807;SDS011;29438;50.664;10.098;2023-07-30T11:46:24;1.35;;;0.50;;
43807;SDS011;29438;50.664;10.098;2023-07-30T11:48:51;2.53;;;0.50;;
43807;SDS011;29438;50.664;10.098;2023-07-30T11:51:25;2.28;;;0.90;;
43807;SDS011;29438;50.664;10.098;2023-07-30T11:56:17;3.80;;;0.90;;
43807;SDS011;29438;50.664;10.098;2023-07-30T11:58:51;2.70;;;1.17;;
43807;SDS011;29438;50.664;10.098;2023-07-30T12:01:25;3.60;;;1.17;;
43807;SDS011;29438;50.664;10.098;2023-07-30T12:03:55;5.55;;;1.50;;
43807;SDS011;29438;50.664;10.098;2023-07-30T12:06:21;8.05;;;0.82;;
43807;SDS011;29438;50.664;10.098;2023-07-30T12:08:50;1.17;;;0.20;;
43807;SDS011;29438;50.664;10.098;2023-07-30T12:11:17;1.23;;;0.00;;
43807;SDS011;29438;50.664;10.098;2023-07-30T12:13:46;2.50;;;0.10;;
43807;SDS011;29438;50.664;10.098;2023-07-30T12:16:13;3.85;;;0.10;;
43807;SDS011;29438;50.664;10.098;2023-07-30T12:18:39;1.25;;;0.20;;
43807;SDS011;29438;50.664;10.098;2023-07-30T12:21:05;0.55;;;0.15;;
43807;SDS011;29438;50.664;10.098;2023-07-30T12:23:32;0.63;;;0.10;;
43807;SDS011;29438;50.664;10.098;2023-07-30T12:25:59;4.22;;;0.40;;
43807;SDS011;29438;50.664;10.098;2023-07-30T12:28:25;1.95;;;0.40;;
43807;SDS011;29438;50.664;10.098;2023-07-30T12:30:50;4.40;;;0.32;;
43807;SDS011;29438;50.664;10.098;2023-07-30T12:33:16;1.15;;;0.30;;
43807;SDS011;29438;50.664;10.098;2023-07-30T12:35:41;3.55;;;0.30;;
43807;SDS011;29438;50.664;10.098;2023-07-30T12:38:07;1.08;;;0.40;;
43807;SDS011;29438;50.664;10.098;2023-07-30T12:40:33;1.60;;;0.38;;
43807;SDS011;29438;50.664;10.098;2023-07-30T12:43:00;1.60;;;0.60;;
43807;SDS011;29438;50.664;10.098;2023-07-30T12:45:27;1.58;;;0.55;;
43807;SDS011;29438;50.664;10.098;2023-07-30T12:47:53;1.67;;;0.50;;
43807;SDS011;29438;50.664;10.098;2023-07-30T12:50:18;2.00;;;0.40;;
43807;SDS011;29438;50.664;10.098;2023-07-30T12:52:44;2.00;;;0.50;;
43807;SDS011;29438;50.664;10.098;2023-07-30T12:55:09;1.42;;;0.30;;
43807;SDS011;29438;50.664;10.098;2023-07-30T12:57:35;1.38;;;0.40;;
43807;SDS011;29438;50.664;10.098;2023-07-30T13:00:01;1.67;;;0.47;;
43807;SDS011;29438;50.664;10.098;2023-07-30T13:02:27;1.20;;;0.50;;
43807;SDS011;29438;50.664;10.098;2023-07-30T13:04:52;1.80;;;0.70;;
43807;SDS011;29438;50.664;10.098;2023-07-30T13:07:18;2.45;;;0.60;;
43807;SDS011;29438;50.664;10.098;2023-07-30T13:09:45;1.73;;;0.70;;
43807;SDS011;29438;50.664;10.098;2023-07-30T13:12:11;4.13;;;0.88;;
43807;SDS011;29438;50.664;10.098;2023-07-30T13:14:37;1.75;;;0.70;;
43807;SDS011;29438;50.664;10.098;2023-07-30T13:17:02;3.20;;;0.80;;
43807;SDS011;29438;50.664;10.098;2023-07-30T13:19:28;2.63;;;0.52;;
43807;SDS011;29438;50.664;10.098;2023-07-30T13:21:55;2.45;;;0.70;;
43807;SDS011;29438;50.664;10.098;2023-07-30T13:24:20;2.40;;;0.85;;
43807;SDS011;29438;50.664;10.098;2023-07-30T13:26:46;2.28;;;0.50;;
43807;SDS011;29438;50.664;10.098;2023-07-30T13:29:11;2.38;;;0.75;;
43807;SDS011;29438;50.664;10.098;2023-07-30T13:31:37;2.00;;;0.70;;
43807;SDS011;29438;50.664;10.098;2023-07-30T13:34:02;1.52;;;0.35;;
43807;SDS011;29438;50.664;10.098;2023-07-30T13:36:28;2.83;;;0.60;;
43807;SDS011;29438;50.664;10.098;2023-07-30T13:38:54;3.38;;;0.93;;
43807;SDS011;29438;50.664;10.098;2023-07-30T13:41:20;1.33;;;0.50;;
43807;SDS011;29438;50.664;10.098;2023-07-30T13:43:45;2.95;;;0.60;;
43807;SDS011;29438;50.664;10.098;2023-07-30T13:46:11;1.88;;;0.65;;
43807;SDS011;29438;50.664;10.098;2023-07-30T13:48:36;1.88;;;0.55;;
43807;SDS011;29438;50.664;10.098;2023-07-30T13:51:02;1.42;;;0.40;;
43807;SDS011;29438;50.664;10.098;2023-07-30T13:53:28;2.70;;;0.55;;
43807;SDS011;29438;50.664;10.098;2023-07-30T13:55:53;1.23;;;0.50;;
43807;SDS011;29438;50.664;10.098;2023-07-30T13:58:19;2.15;;;0.68;;
43807;SDS011;29438;50.664;10.098;2023-07-30T14:00:44;3.50;;;0.60;;
43807;SDS011;29438;50.664;10.098;2023-07-30T14:03:10;1.88;;;0.50;;
43807;SDS011;29438;50.664;10.098;2023-07-30T14:05:36;2.35;;;0.50;;
43807;SDS011;29438;50.664;10.098;2023-07-30T14:08:03;2.38;;;0.70;;
43807;SDS011;29438;50.664;10.098;2023-07-30T14:10:28;2.55;;;0.50;;
43807;SDS011;29438;50.664;10.098;2023-07-30T14:12:54;3.08;;;0.45;;
43807;SDS011;29438;50.664;10.098;2023-07-30T14:15:29;1.90;;;0.47;;
43807;SDS011;29438;50.664;10.098;2023-07-30T14:18:01;3.47;;;0.60;;
43807;SDS011;29438;50.664;10.098;2023-07-30T14:20:27;2.63;;;0.40;;
43807;SDS011;29438;50.664;10.098;2023-07-30T14:22:52;2.38;;;0.70;;
43807;SDS011;29438;50.664;10.098;2023-07-30T14:25:19;4.47;;;0.70;;
43807;SDS011;29438;50.664;10.098;2023-07-30T14:27:45;3.85;;;0.93;;
43807;SDS011;29438;50.664;10.098;2023-07-30T14:30:10;1.80;;;0.65;;
43807;SDS011;29438;50.664;10.098;2023-07-30T14:32:36;2.60;;;0.60;;
43807;SDS011;29438;50.664;10.098;2023-07-30T14:35:03;2.83;;;0.52;;
43807;SDS011;29438;50.664;10.098;2023-07-30T14:37:29;3.13;;;0.40;;